Time;durP1;ratioP1;P1;durP2;ratioP2;P2;SDS_P1;SDS_P2;PMS_P1;PMS_P2;Temp;Humidity;BMP_temperature;BMP_pressure;BME280_temperature;BME280_humidity;BME280_pressure;Samples;Min_cycle;Max_cycle;Signal;HPM_P1;HPM_P2
2022/09/08 00:04:11;;;;;;;1.70;1.00;;;;;;;21.00;65.76;100342.53;18371733;32;20127;-55
2022/09/08 00:14:16;;;;;;;0.70;0.47;;;;;;;20.90;66.44;100336.81;18371362;32;20420;-55
2022/09/08 00:24:19;;;;;;;0.85;0.75;;;;;;;20.89;67.64;100326.25;18372190;32;20121;-55
2022/09/08 00:34:23;;;;;;;2.12;1.15;;;;;;;20.97;67.44;100304.69;18370575;32;20102;-56
2022/09/08 00:44:47;;;;;;;0.75;0.52;;;;;;;20.95;67.33;100301.22;18369646;32;20102;-55
2022/09/08 00:54:52;;;;;;;2.00;1.37;;;;;;;20.87;67.68;100294.53;18370406;32;20135;-55
2022/09/08 01:04:57;;;;;;;0.75;0.73;;;;;;;20.87;67.54;100289.22;18369976;32;20085;-56
2022/09/08 01:15:02;;;;;;;3.60;1.60;;;;;;;20.84;67.64;100289.34;18369951;32;20093;-55
2022/09/08 01:25:16;;;;;;;0.85;0.70;;;;;;;20.82;67.45;100279.69;18369406;32;20093;-55
2022/09/08 01:35:31;;;;;;;1.65;1.37;;;;;;;20.76;67.25;100283.50;18369291;32;20171;-55
2022/09/08 01:45:35;;;;;;;1.48;0.80;;;;;;;20.66;66.93;100268.00;18369008;32;20100;-55
2022/09/08 01:55:39;;;;;;;1.70;1.60;;;;;;;20.58;66.65;100269.31;18368203;32;20175;-55
2022/09/08 02:05:44;;;;;;;2.50;1.12;;;;;;;20.22;67.68;100277.06;18368340;32;20370;-55
2022/09/08 02:15:49;;;;;;;0.95;0.55;;;;;;;20.18;67.57;100271.97;18367694;32;20146;-56
2022/09/08 02:25:55;;;;;;;0.88;0.70;;;;;;;20.17;67.37;100265.84;18368737;32;20107;-55
2022/09/08 02:35:59;;;;;;;2.75;1.92;;;;;;;20.08;66.98;100277.69;18367524;32;20096;-56
2022/09/08 02:46:06;;;;;;;2.47;0.93;;;;;;;19.99;67.73;100270.13;18368174;32;20085;-55
2022/09/08 02:56:11;;;;;;;1.65;0.73;;;;;;;20.04;67.53;100261.97;18366601;32;20112;-55
2022/09/08 03:06:14;;;;;;;4.72;1.80;;;;;;;20.01;67.72;100262.12;18366858;32;20101;-55
2022/09/08 03:16:19;;;;;;;0.95;0.93;;;;;;;19.99;67.57;100253.41;18373189;32;20146;-55
2022/09/08 03:26:24;;;;;;;1.45;0.88;;;;;;;19.87;67.78;100260.94;18372874;32;20179;-55
2022/09/08 03:36:29;;;;;;;3.58;1.58;;;;;;;19.88;67.23;100261.78;18358589;32;20105;-55
2022/09/08 03:46:32;;;;;;;1.27;1.05;;;;;;;19.74;67.69;100260.59;18372376;32;20115;-55
2022/09/08 03:56:37;;;;;;;3.08;1.67;;;;;;;19.57;68.52;100266.56;18371520;32;20092;-55
2022/09/08 04:06:40;;;;;;;2.15;1.75;;;;;;;19.57;68.32;100284.28;18371387;32;20098;-55
2022/09/08 04:16:45;;;;;;;2.30;1.98;;;;;;;19.72;67.75;100288.06;18371109;32;20104;-55
2022/09/08 04:26:49;;;;;;;0.93;0.80;;;;;;;19.62;68.20;100287.56;18371487;32;20380;-55
2022/09/08 04:36:54;;;;;;;1.12;1.02;;;;;;;19.83;67.61;100305.22;18370778;32;20151;-55
2022/09/08 04:46:57;;;;;;;3.10;1.85;;;;;;;19.67;68.92;100277.66;18370605;32;20494;-55
2022/09/08 04:57:02;;;;;;;0.65;0.65;;;;;;;20.01;68.09;100283.31;18371163;32;20109;-55
2022/09/08 05:07:05;;;;;;;1.42;1.33;;;;;;;20.37;67.57;100288.78;18356776;32;20437;-55
2022/09/08 05:17:09;;;;;;;3.30;1.27;;;;;;;20.63;67.01;100293.81;18369516;32;20094;-55
2022/09/08 05:27:12;;;;;;;0.90;0.82;;;;;;;20.92;66.15;100287.19;18368907;32;20151;-55
2022/09/08 05:37:17;;;;;;;1.02;0.93;;;;;;;21.34;64.92;100302.91;18376924;32;20148;-56
2022/09/08 05:47:20;;;;;;;2.62;1.05;;;;;;;22.04;63.40;100297.66;18430000;32;20100;-55
2022/09/08 05:57:25;;;;;;;0.50;0.50;;;;;;;22.49;60.12;100296.25;18432612;32;20097;-56
2022/09/08 06:07:28;;;;;;;1.37;1.20;;;;;;;23.41;58.04;100290.28;18432292;32;20456;-56
2022/09/08 06:17:33;;;;;;;1.65;1.02;;;;;;;23.16;56.99;100293.47;18431602;32;20097;-56
2022/09/08 06:27:43;;;;;;;1.58;1.08;;;;;;;25.12;52.42;100294.22;18432936;32;20115;-56
2022/09/08 06:37:49;;;;;;;2.45;1.60;;;;;;;25.23;52.50;100274.84;18430461;32;20151;-56
2022/09/08 06:48:12;;;;;;;1.08;0.52;;;;;;;24.96;53.20;100267.66;18425932;32;20141;-56
2022/09/08 06:58:22;;;;;;;2.70;2.05;;;;;;;26.15;49.98;100249.00;18429055;32;20137;-56
2022/09/08 07:08:55;;;;;;;4.33;2.10;;;;;;;26.21;49.71;100246.91;18443816;32;20092;-56
2022/09/08 07:19:06;;;;;;;1.45;0.55;;;;;;;26.72;48.51;100235.25;18437102;32;20115;-56
2022/09/08 07:29:30;;;;;;;1.40;0.65;;;;;;;26.03;49.34;100233.81;18476284;32;20109;-56
2022/09/08 07:39:38;;;;;;;1.67;1.12;;;;;;;25.78;49.70;100227.50;18491776;32;20135;-56
2022/09/08 07:49:46;;;;;;;1.20;0.95;;;;;;;26.67;49.48;100224.88;18491491;32;20096;-56
2022/09/08 07:59:56;;;;;;;0.50;0.50;;;;;;;27.28;47.47;100241.88;18497751;32;20081;-56
2022/09/08 08:10:04;;;;;;;1.08;1.00;;;;;;;26.84;48.19;100242.34;18498693;32;20504;-56
2022/09/08 08:20:19;;;;;;;0.80;0.52;;;;;;;25.62;51.06;100243.75;18499794;32;20085;-56
2022/09/08 08:30:23;;;;;;;0.55;0.55;;;;;;;26.41;49.25;100243.66;18445008;32;20473;-56
2022/09/08 08:40:37;;;;;;;2.10;1.10;;;;;;;25.82;49.88;100246.87;18448207;32;20100;-56
2022/09/08 08:51:06;;;;;;;1.67;0.80;;;;;;;27.10;47.86;100230.69;18499063;32;20425;-56
2022/09/08 09:01:22;;;;;;;2.15;1.55;;;;;;;27.39;46.45;100233.00;18490933;32;20525;-56
2022/09/08 09:11:46;;;;;;;2.45;2.17;;;;;;;27.98;45.62;100218.66;18496800;32;20106;-56
2022/09/08 09:21:56;;;;;;;1.65;1.30;;;;;;;27.68;46.70;100205.81;18464811;32;20450;-56
2022/09/08 09:32:29;;;;;;;0.88;0.88;;;;;;;29.02;42.45;100187.16;18433729;32;20146;-56
2022/09/08 09:42:52;;;;;;;1.92;1.08;;;;;;;28.82;43.33;100181.59;18321930;32;20148;-56
2022/09/08 09:53:02;;;;;;;0.43;0.43;;;;;;;29.68;41.72;100166.41;18366639;32;20111;-56
2022/09/08 10:04:00;;;;;;;0.50;0.45;;;;;;;29.15;43.65;100168.16;18498129;32;20107;-56
2022/09/08 10:14:34;;;;;;;2.15;1.00;;;;;;;30.55;39.77;100153.41;18478323;32;20435;-55
2022/09/08 10:25:27;;;;;;;2.20;1.48;;;;;;;30.53;40.22;100129.28;18495829;32;20165;-55
2022/09/08 10:35:39;;;;;;;1.62;0.70;;;;;;;31.33;37.71;100113.97;18496090;32;20186;-56
2022/09/08 10:45:57;;;;;;;0.93;0.68;;;;;;;31.21;39.27;100107.88;18494677;32;20097;-56
2022/09/08 10:56:09;;;;;;;1.08;0.95;;;;;;;31.07;37.92;100104.63;18288906;32;20450;-56
2022/09/08 11:06:20;;;;;;;1.17;0.75;;;;;;;32.02;36.56;100109.19;18273741;32;20088;-56
2022/09/08 11:16:36;;;;;;;1.37;1.02;;;;;;;31.42;38.57;100099.59;18480951;32;20115;-56
2022/09/08 11:26:47;;;;;;;1.65;0.95;;;;;;;31.46;36.08;100083.97;18494402;32;20103;-56
2022/09/08 11:37:20;;;;;;;1.02;0.75;;;;;;;32.07;35.62;100085.28;18501193;32;20433;-56
2022/09/08 11:47:58;;;;;;;0.75;0.50;;;;;;;32.48;34.97;100082.19;18500309;32;20477;-55
2022/09/08 11:58:16;;;;;;;0.30;0.30;;;;;;;32.03;35.82;100097.38;18371876;32;20415;-56
2022/09/08 12:08:35;;;;;;;0.55;0.30;;;;;;;31.72;37.30;100088.72;18371670;32;20344;-55
2022/09/08 12:18:52;;;;;;;0.08;0.05;;;;;;;31.89;35.85;100087.09;18370360;32;20096;-56
2022/09/08 12:29:11;;;;;;;2.17;0.85;;;;;;;32.15;35.48;100083.66;18371017;32;20377;-56
2022/09/08 12:39:47;;;;;;;0.10;0.10;;;;;;;31.95;35.97;100073.00;18357647;32;20473;-56
2022/09/08 12:50:11;;;;;;;0.30;0.30;;;;;;;31.89;35.68;100060.97;18368495;32;21306;-57
2022/09/08 13:00:16;;;;;;;0.47;0.20;;;;;;;32.11;35.73;100051.59;18370517;32;20093;-56
2022/09/08 13:10:25;;;;;;;0.35;0.32;;;;;;;32.47;34.50;100026.47;18371121;32;20097;-56
2022/09/08 13:20:38;;;;;;;0.77;0.33;;;;;;;32.17;35.38;100017.72;18407010;32;20424;-56
2022/09/08 13:30:51;;;;;;;0.43;0.17;;;;;;;31.72;37.30;100010.47;18434237;32;20097;-55
2022/09/08 13:41:09;;;;;;;0.00;0.00;;;;;;;31.39;37.21;99990.19;18493943;32;20085;-55
2022/09/08 13:51:23;;;;;;;1.30;0.13;;;;;;;31.64;36.84;99976.16;18496471;32;20117;-55
2022/09/08 14:01:36;;;;;;;0.10;0.10;;;;;;;31.72;35.82;99978.09;18498161;32;20080;-55
2022/09/08 14:11:47;;;;;;;10.48;1.33;;;;;;;31.46;35.97;99971.59;18295103;32;20465;-55
2022/09/08 14:21:55;;;;;;;0.10;0.10;;;;;;;30.96;36.80;99978.16;18245874;32;20358;-55
2022/09/08 14:32:09;;;;;;;0.10;0.10;;;;;;;30.59;38.42;99944.72;18361545;32;20089;-55
2022/09/08 14:42:22;;;;;;;0.15;0.10;;;;;;;30.28;39.65;99931.47;18341995;32;20347;-55
2022/09/08 14:52:39;;;;;;;0.40;0.40;;;;;;;30.06;40.81;99981.06;18332120;32;20150;-56
2022/09/08 15:02:55;;;;;;;0.10;0.10;;;;;;;26.91;55.76;100041.09;18360621;32;20125;-55
2022/09/08 15:13:12;;;;;;;0.10;0.10;;;;;;;25.05;62.65;100019.63;18346707;32;20412;-56
2022/09/08 15:23:23;;;;;;;1.37;0.30;;;;;;;24.57;66.98;100027.31;18390465;32;155276;-56
2022/09/08 15:33:35;;;;;;;1.45;0.62;;;;;;;24.52;68.69;100014.28;18428208;32;20088;-56
2022/09/08 15:43:44;;;;;;;0.10;0.10;;;;;;;24.63;68.58;99986.84;18424569;32;20103;-56
2022/09/08 15:54:18;;;;;;;0.00;0.00;;;;;;;24.62;67.58;99985.16;18412295;32;20097;-56
2022/09/08 16:04:27;;;;;;;0.30;0.30;;;;;;;24.56;69.52;100009.56;18421579;32;20116;-56
2022/09/08 16:14:39;;;;;;;0.97;0.93;;;;;;;24.66;69.08;99998.19;18413310;32;20143;-56
2022/09/08 16:24:56;;;;;;;0.00;0.00;;;;;;;24.59;70.54;99998.72;18426611;32;20162;-56
2022/09/08 16:35:14;;;;;;;0.20;0.20;;;;;;;24.59;71.16;99994.22;18419843;32;20127;-56
2022/09/08 16:45:38;;;;;;;0.95;0.55;;;;;;;24.64;71.11;99991.22;18434897;32;20103;-56
2022/09/08 16:55:52;;;;;;;0.10;0.10;;;;;;;24.74;70.76;100002.16;18431407;32;20089;-56
2022/09/08 17:05:57;;;;;;;0.05;0.05;;;;;;;24.64;70.58;99996.56;18414801;32;20127;-56
2022/09/08 17:16:52;;;;;;;0.10;0.10;;;;;;;24.41;71.18;100001.66;18434006;32;20092;-56
2022/09/08 17:27:22;;;;;;;0.35;0.30;;;;;;;24.42;71.46;99982.03;18432343;32;20133;-57
2022/09/08 17:37:35;;;;;;;0.10;0.10;;;;;;;23.65;75.24;99988.72;18412729;32;20129;-56
2022/09/08 17:48:14;;;;;;;0.25;0.20;;;;;;;24.29;72.80;99970.47;18376402;32;20078;-55
2022/09/08 17:58:22;;;;;;;1.95;0.35;;;;;;;24.40;72.54;100002.63;18417758;32;20405;-56
2022/09/08 18:08:33;;;;;;;0.32;0.20;;;;;;;24.28;72.33;100014.94;18418184;32;20107;-56
2022/09/08 18:18:39;;;;;;;0.10;0.10;;;;;;;24.34;71.70;100035.03;18431944;32;20180;-56
2022/09/08 18:28:57;;;;;;;0.22;0.15;;;;;;;24.27;71.83;100039.03;18417411;32;20108;-56
2022/09/08 18:39:02;;;;;;;0.40;0.40;;;;;;;24.13;72.09;100051.47;18416604;32;20145;-56
2022/09/08 18:49:34;;;;;;;1.08;0.35;;;;;;;23.91;72.76;100058.16;18431652;32;20084;-56
2022/09/08 18:59:58;;;;;;;0.40;0.17;;;;;;;24.05;72.35;100080.44;18409373;32;20709;-56
2022/09/08 19:10:10;;;;;;;1.15;0.30;;;;;;;24.10;71.97;100097.00;18394535;32;20077;-56
2022/09/08 19:20:16;;;;;;;0.43;0.43;;;;;;;23.97;72.00;100092.41;18416375;32;20093;-56
2022/09/08 19:30:31;;;;;;;0.20;0.20;;;;;;;23.84;72.55;100129.63;18372385;32;20093;-56
2022/09/08 19:40:37;;;;;;;1.33;0.80;;;;;;;23.61;73.43;100128.41;18396794;32;20455;-55
2022/09/08 19:50:55;;;;;;;1.00;0.80;;;;;;;23.05;76.87;100128.19;18416969;32;20124;-55
2022/09/08 20:01:34;;;;;;;0.00;0.00;;;;;;;23.68;73.28;100129.75;18419553;32;20098;-56
2022/09/08 20:11:40;;;;;;;0.25;0.25;;;;;;;23.76;72.88;100131.94;18415765;32;20139;-56
2022/09/08 20:21:48;;;;;;;0.00;0.00;;;;;;;23.64;72.92;100122.91;18427548;32;20097;-56
2022/09/08 20:32:02;;;;;;;0.10;0.10;;;;;;;23.59;71.92;100158.78;18419682;32;20137;-56
2022/09/08 20:42:14;;;;;;;0.30;0.15;;;;;;;23.37;71.54;100163.56;18422696;32;20119;-56
2022/09/08 20:52:32;;;;;;;0.10;0.10;;;;;;;22.76;73.54;100160.84;18404590;32;20111;-55
2022/09/08 21:02:42;;;;;;;1.08;0.20;;;;;;;22.93;72.64;100154.59;18426441;32;20360;-56
2022/09/08 21:12:57;;;;;;;0.52;0.15;;;;;;;22.91;72.27;100204.38;18467024;32;20376;-55
2022/09/08 21:23:02;;;;;;;3.03;1.55;;;;;;;22.67;73.81;100194.19;18422880;32;20381;-55
2022/09/08 21:33:13;;;;;;;0.85;0.45;;;;;;;22.14;75.97;100270.59;18453355;32;20115;-54
2022/09/08 21:43:18;;;;;;;0.20;0.20;;;;;;;22.23;75.57;100194.81;18489016;32;20724;-56
2022/09/08 21:53:29;;;;;;;0.10;0.10;;;;;;;22.48;74.29;100247.53;18475992;32;20131;-55
2022/09/08 22:03:46;;;;;;;0.08;0.08;;;;;;;22.48;73.88;100214.72;18456271;32;20111;-57
2022/09/08 22:13:58;;;;;;;0.00;0.00;;;;;;;22.67;73.34;100223.44;18460907;32;20085;-56
2022/09/08 22:24:05;;;;;;;0.60;0.45;;;;;;;22.72;72.74;100192.13;18446909;32;20082;-56
2022/09/08 22:34:11;;;;;;;0.15;0.15;;;;;;;22.50;73.51;100187.16;18447675;32;20121;-56
2022/09/08 22:44:23;;;;;;;0.10;0.10;;;;;;;22.43;73.38;100175.09;18402290;32;20385;-56
2022/09/08 22:54:32;;;;;;;1.55;0.20;;;;;;;22.34;71.34;100180.94;18380002;32;20168;-55
2022/09/08 23:04:40;;;;;;;0.20;0.20;;;;;;;21.53;70.39;100179.81;18375467;32;20111;-55
2022/09/08 23:14:51;;;;;;;0.10;0.10;;;;;;;21.52;70.79;100178.12;18366226;32;20646;-55
2022/09/08 23:25:06;;;;;;;0.13;0.13;;;;;;;21.36;71.78;100194.84;18380748;32;20372;-55
2022/09/08 23:35:13;;;;;;;0.00;0.00;;;;;;;21.28;71.44;100187.25;18422881;32;20446;-55
2022/09/08 23:45:19;;;;;;;0.08;0.08;;;;;;;21.30;71.04;100198.69;18436840;32;20351;-55
2022/09/08 23:55:24;;;;;;;0.00;0.00;;;;;;;21.08;71.06;100206.84;18437444;32;20093;-55
